createdAt,value
2019-05-13T00:00:50.114Z,86.39
2019-05-13T00:01:49.994Z,86.60
2019-05-13T00:02:50.094Z,86.70
2019-05-13T00:03:49.974Z,87.43
2019-05-13T00:04:50.026Z,86.39
2019-05-13T00:05:49.988Z,86.64
2019-05-13T00:06:54.241Z,87.01
2019-05-13T00:07:50.934Z,87.26
2019-05-13T00:08:50.035Z,87.68
2019-05-13T00:09:49.897Z,87.99
2019-05-13T00:10:49.947Z,87.57
2019-05-13T00:11:50.041Z,87.57
2019-05-13T00:12:49.971Z,87.99
2019-05-13T00:13:49.849Z,87.71
2019-05-13T00:14:49.875Z,87.71
2019-05-13T00:15:49.833Z,87.71
2019-05-13T00:16:49.911Z,87.99
2019-05-13T00:17:49.810Z,87.61
2019-05-13T00:18:49.903Z,87.71
2019-05-13T00:19:49.803Z,87.82
2019-05-13T00:20:49.813Z,87.71
2019-05-13T00:21:49.861Z,88.34
2019-05-13T00:22:49.826Z,88.34
2019-05-13T00:23:49.746Z,88.65
2019-05-13T00:24:49.842Z,88.79
2019-05-13T00:25:49.727Z,88.75
2019-05-13T00:26:49.782Z,89.52
2019-05-13T00:27:49.708Z,89.37
2019-05-13T00:28:49.769Z,89.62
2019-05-13T00:29:49.690Z,89.52
2019-05-13T00:30:49.775Z,89.42
2019-05-13T00:31:49.685Z,89.62
2019-05-13T00:32:49.696Z,89.83
2019-05-13T00:33:49.640Z,89.73
2019-05-13T00:34:49.717Z,89.31
2019-05-13T00:35:49.617Z,89.62
2019-05-13T00:36:49.753Z,89.31
2019-05-13T00:37:49.595Z,89.87
2019-05-13T00:38:49.640Z,89.73
2019-05-13T00:39:49.571Z,89.52
2019-05-13T00:40:49.646Z,89.77
2019-05-13T00:41:49.577Z,89.62
2019-05-13T00:42:49.659Z,90.39
2019-05-13T00:43:49.536Z,90.39
2019-05-13T00:44:49.581Z,90.70
2019-05-13T00:45:49.508Z,90.29
2019-05-13T00:46:49.617Z,90.50
2019-05-13T00:47:49.489Z,89.98
2019-05-13T00:48:49.598Z,90.29
2019-05-13T00:49:49.486Z,90.50
2019-05-13T00:50:49.513Z,90.08
2019-05-13T00:51:49.471Z,90.29
2019-05-13T00:52:49.526Z,90.44
2019-05-13T00:53:49.424Z,90.39
2019-05-13T00:54:49.435Z,90.12
2019-05-13T00:55:49.421Z,90.33
2019-05-13T00:56:49.452Z,90.29
2019-05-13T00:57:49.404Z,90.60
2019-05-13T00:58:49.463Z,90.44
2019-05-13T00:59:49.354Z,90.12
2019-05-13T01:00:49.381Z,90.64
2019-05-13T01:01:49.340Z,90.33
2019-05-13T01:02:49.632Z,90.33
2019-05-13T01:03:49.317Z,90.23
2019-05-13T01:04:49.405Z,90.95
2019-05-13T01:05:49.303Z,90.75
2019-05-13T01:06:49.312Z,91.16
2019-05-13T01:07:49.311Z,91.68
2019-05-13T01:08:49.328Z,91.89
2019-05-13T01:09:49.245Z,91.78
2019-05-13T01:10:49.345Z,91.27
2019-05-13T01:11:49.244Z,91.31
2019-05-13T01:12:49.275Z,91.31
2019-05-13T01:13:49.237Z,91.10
2019-05-13T01:14:49.278Z,91.52
2019-05-13T01:15:49.181Z,91.52
2019-05-13T01:16:49.321Z,91.52
2019-05-13T01:17:49.172Z,91.31
2019-05-13T01:18:49.229Z,91.52
2019-05-13T01:19:49.136Z,91.52
2019-05-13T01:20:49.208Z,91.10
2019-05-13T01:21:49.114Z,91.31
2019-05-13T01:22:49.248Z,91.97
2019-05-13T01:23:49.097Z,91.97
2019-05-13T01:24:49.134Z,91.41
2019-05-13T01:25:49.070Z,91.72
2019-05-13T01:26:49.151Z,91.66
2019-05-13T01:27:49.108Z,91.46
2019-05-13T01:28:49.092Z,91.25
2019-05-13T01:29:49.028Z,91.83
2019-05-13T01:30:49.079Z,91.97
2019-05-13T01:31:49.004Z,92.29
2019-05-13T01:32:49.114Z,92.39
2019-05-13T01:33:49.011Z,92.60
2019-05-13T01:34:48.999Z,92.39
2019-05-13T01:35:48.969Z,92.39
2019-05-13T01:36:49.013Z,92.29
2019-05-13T01:37:48.946Z,92.29
2019-05-13T01:38:49.057Z,92.49
2019-05-13T01:39:48.931Z,92.49
2019-05-13T01:40:48.946Z,92.49
2019-05-13T01:41:48.897Z,92.49
2019-05-13T01:42:48.957Z,92.29
2019-05-13T01:43:48.897Z,92.39
2019-05-13T01:44:48.964Z,92.60
2019-05-13T01:45:48.853Z,92.39
2019-05-13T01:46:48.902Z,92.33
2019-05-13T01:47:48.838Z,93.05
2019-05-13T01:48:48.927Z,93.01
2019-05-13T01:49:48.809Z,93.23
2019-05-13T01:50:48.910Z,93.16
2019-05-13T01:51:48.792Z,92.74
2019-05-13T01:52:48.822Z,93.05
2019-05-13T01:53:48.778Z,92.74
2019-05-13T01:54:48.870Z,92.64
2019-05-13T01:55:48.743Z,93.05
2019-05-13T01:56:48.848Z,93.16
2019-05-13T01:57:48.718Z,93.27
2019-05-13T01:58:48.793Z,93.16
2019-05-13T01:59:48.715Z,93.05
2019-05-13T02:00:51.511Z,93.16
2019-05-13T02:01:48.675Z,93.20
2019-05-13T02:02:48.788Z,93.52
2019-05-13T02:03:48.684Z,93.68
2019-05-13T02:04:48.699Z,94.14
2019-05-13T02:05:48.633Z,94.35
2019-05-13T02:06:48.718Z,94.14
2019-05-13T02:07:57.785Z,94.24
2019-05-13T02:08:49.624Z,93.83
2019-05-13T02:09:48.665Z,93.73
2019-05-13T02:10:48.577Z,93.93
2019-05-13T02:11:48.646Z,93.52
2019-05-13T02:12:48.548Z,94.45
2019-05-13T02:13:48.657Z,93.62
2019-05-13T02:14:48.566Z,93.62
2019-05-13T02:15:48.570Z,93.66
2019-05-13T02:16:48.515Z,93.56
2019-05-13T02:17:48.592Z,93.46
2019-05-13T02:18:48.500Z,94.04
2019-05-13T02:19:48.636Z,94.29
2019-05-13T02:20:48.470Z,94.49
2019-05-13T02:21:48.509Z,94.60
2019-05-13T02:22:48.456Z,93.77
2019-05-13T02:23:48.626Z,93.77
2019-05-13T02:24:48.449Z,94.08
2019-05-13T02:25:48.542Z,93.66
2019-05-13T02:26:48.403Z,93.56
2019-05-13T02:27:48.552Z,93.87
2019-05-13T02:28:48.403Z,93.77
2019-05-13T02:29:48.521Z,93.66
2019-05-13T02:30:48.376Z,94.49
2019-05-13T02:31:55.123Z,93.87
2019-05-13T02:32:52.922Z,94.29
2019-05-13T02:33:48.420Z,94.29
2019-05-13T02:34:48.342Z,94.64
2019-05-13T02:35:48.408Z,93.91
2019-05-13T02:36:48.293Z,94.43
2019-05-13T02:37:48.314Z,94.23
2019-05-13T02:38:48.273Z,94.43
2019-05-13T02:39:48.364Z,94.23
2019-05-13T02:40:48.262Z,94.23
2019-05-13T02:41:48.351Z,94.33
2019-05-13T02:42:48.232Z,94.33
2019-05-13T02:43:48.245Z,94.33
2019-05-13T02:44:48.247Z,94.43
2019-05-13T02:45:48.303Z,93.91
2019-05-13T02:46:48.187Z,94.43
2019-05-13T02:47:48.280Z,94.85
2019-05-13T02:48:48.165Z,94.54
2019-05-13T02:49:48.195Z,94.33
2019-05-13T02:50:48.166Z,94.58
2019-05-13T02:51:48.212Z,94.37
2019-05-13T02:52:48.122Z,94.48
2019-05-13T02:53:48.220Z,94.54
2019-05-13T02:54:48.126Z,94.27
2019-05-13T02:55:48.159Z,94.69
2019-05-13T02:56:48.096Z,94.37
2019-05-13T02:57:48.142Z,94.58
2019-05-13T02:58:48.052Z,94.48
2019-05-13T02:59:48.158Z,94.58
2019-05-13T03:00:48.062Z,94.69
2019-05-13T03:01:48.069Z,94.37
2019-05-13T03:02:48.011Z,94.69
2019-05-13T03:03:48.089Z,94.63
2019-05-13T03:04:47.991Z,94.52
2019-05-13T03:05:48.146Z,94.37
2019-05-13T03:06:47.972Z,94.42
2019-05-13T03:07:48.006Z,94.73
2019-05-13T03:08:50.000Z,95.36
2019-05-13T03:09:52.502Z,95.46
2019-05-13T03:10:48.076Z,95.25
2019-05-13T03:11:48.035Z,95.42
2019-05-13T03:12:47.907Z,95.36
2019-05-13T03:13:47.947Z,95.36
2019-05-13T03:14:48.680Z,95.15
2019-05-13T03:15:48.001Z,95.25
2019-05-13T03:16:47.904Z,95.15
2019-05-13T03:17:47.979Z,95.15
2019-05-13T03:18:47.841Z,95.56
2019-05-13T03:19:47.888Z,95.46
2019-05-13T03:20:47.853Z,94.63
2019-05-13T03:21:47.939Z,95.36
2019-05-13T03:22:47.801Z,95.36
2019-05-13T03:23:47.813Z,95.15
2019-05-13T03:24:47.783Z,95.15
2019-05-13T03:25:47.907Z,95.25
2019-05-13T03:26:47.782Z,95.25
2019-05-13T03:27:47.844Z,95.36
2019-05-13T03:28:47.733Z,95.15
2019-05-13T03:29:47.756Z,95.25
2019-05-13T03:30:47.738Z,95.29
2019-05-13T03:31:47.831Z,95.78
2019-05-13T03:32:55.263Z,95.92
2019-05-13T03:33:48.725Z,95.61
2019-05-13T03:34:47.788Z,95.88
2019-05-13T03:35:47.672Z,95.50
2019-05-13T03:36:47.750Z,95.72
2019-05-13T03:37:47.650Z,95.78
2019-05-13T03:39:01.770Z,95.92
2019-05-13T03:39:48.623Z,95.78
2019-05-13T03:40:47.723Z,95.46
2019-05-13T03:41:47.626Z,95.61
2019-05-13T03:42:47.638Z,95.72
2019-05-13T03:43:47.586Z,95.67
2019-05-13T03:44:47.664Z,95.61
2019-05-13T03:45:47.553Z,96.19
2019-05-13T03:46:47.698Z,95.61
2019-05-13T03:47:47.545Z,96.34
2019-05-13T03:48:47.583Z,96.23
2019-05-13T03:49:47.514Z,96.19
2019-05-13T03:50:47.597Z,95.98
2019-05-13T03:51:47.535Z,95.98
2019-05-13T03:52:47.603Z,96.40
2019-05-13T03:53:47.494Z,96.30
2019-05-13T03:54:47.520Z,95.98
2019-05-13T03:55:47.443Z,96.34
2019-05-13T03:56:47.555Z,96.44
2019-05-13T03:57:47.470Z,96.23
2019-05-13T03:58:47.450Z,96.44
2019-05-13T03:59:47.418Z,96.40
2019-05-13T04:00:47.456Z,96.34
2019-05-13T04:01:47.399Z,96.40
2019-05-13T04:02:47.505Z,96.03
2019-05-13T04:03:47.375Z,96.44
2019-05-13T04:04:47.380Z,96.55
2019-05-13T04:05:47.358Z,96.44
2019-05-13T04:06:47.394Z,96.19
2019-05-13T04:07:47.385Z,95.67
2019-05-13T04:08:47.411Z,96.09
2019-05-13T04:09:47.305Z,96.23
2019-05-13T04:10:47.320Z,95.78
2019-05-13T04:11:47.288Z,96.13
2019-05-13T04:12:47.374Z,96.03
2019-05-13T04:13:47.261Z,96.34
2019-05-13T04:14:47.368Z,95.92
2019-05-13T04:15:47.235Z,96.40
2019-05-13T04:16:47.266Z,96.34
2019-05-13T04:17:47.248Z,96.23
2019-05-13T04:18:47.279Z,96.30
2019-05-13T04:19:47.196Z,96.40
2019-05-13T04:20:47.291Z,96.50
2019-05-13T04:21:47.181Z,96.30
2019-05-13T04:22:47.228Z,96.19
2019-05-13T04:23:47.183Z,96.19
2019-05-13T04:24:47.227Z,96.19
2019-05-13T04:25:47.151Z,96.50
2019-05-13T04:26:47.253Z,96.40
2019-05-13T04:27:47.110Z,96.30
2019-05-13T04:28:47.181Z,96.09
2019-05-13T04:29:47.095Z,95.88
2019-05-13T04:30:47.157Z,96.09
2019-05-13T04:31:47.068Z,96.09
2019-05-13T04:32:47.179Z,96.50
2019-05-13T04:33:47.079Z,96.56
2019-05-13T04:34:47.076Z,96.50
2019-05-13T04:35:47.030Z,96.82
2019-05-13T04:36:47.095Z,96.25
2019-05-13T04:37:47.011Z,96.15
2019-05-13T04:38:47.144Z,96.36
2019-05-13T04:39:51.758Z,97.09
2019-05-13T04:40:48.022Z,96.88
2019-05-13T04:41:47.026Z,97.04
2019-05-13T04:42:46.966Z,97.04
2019-05-13T04:43:47.068Z,96.88
2019-05-13T04:44:46.938Z,96.62
2019-05-13T04:45:46.951Z,96.69
2019-05-13T04:46:46.911Z,96.69
2019-05-13T04:47:46.976Z,96.69
2019-05-13T04:48:46.954Z,96.89
2019-05-13T04:49:47.014Z,97.00
2019-05-13T04:50:46.877Z,96.37
2019-05-13T04:51:46.913Z,96.79
2019-05-13T04:52:46.858Z,96.95
2019-05-13T04:53:46.934Z,96.69
2019-05-13T04:54:46.824Z,96.37
2019-05-13T04:55:47.041Z,96.85
2019-05-13T04:56:46.816Z,96.64
2019-05-13T04:57:46.835Z,96.75
2019-05-13T04:58:46.787Z,96.33
2019-05-13T04:59:46.978Z,96.70
2019-05-13T05:00:50.095Z,96.95
2019-05-13T05:01:55.324Z,96.28
2019-05-13T05:02:53.789Z,96.49
2019-05-13T05:03:47.825Z,96.80
2019-05-13T05:04:46.745Z,96.45
2019-05-13T05:05:46.791Z,96.34
2019-05-13T05:06:46.714Z,96.97
2019-05-13T05:07:46.795Z,96.66
2019-05-13T05:08:47.621Z,97.07
2019-05-13T05:10:13.225Z,97.59
2019-05-13T05:10:50.161Z,97.34
2019-05-13T05:11:47.693Z,97.96
2019-05-13T05:12:46.732Z,97.96
2019-05-13T05:13:46.645Z,97.40
2019-05-13T05:14:46.697Z,97.40
2019-05-13T05:15:46.601Z,97.61
2019-05-13T05:16:46.666Z,97.50
2019-05-13T05:17:46.577Z,97.56
2019-05-13T05:18:46.687Z,97.77
2019-05-13T05:19:47.634Z,97.45
2019-05-13T05:20:46.602Z,97.62
2019-05-13T05:21:46.555Z,97.52
2019-05-13T05:22:46.594Z,97.78
2019-05-13T05:23:46.513Z,97.58
2019-05-13T05:24:46.642Z,97.43
2019-05-13T05:25:46.500Z,97.22
2019-05-13T05:26:46.525Z,96.55
2019-05-13T05:27:46.476Z,96.03
2019-05-13T05:28:46.531Z,95.37
2019-05-13T05:29:46.478Z,94.95
2019-05-13T05:30:46.553Z,95.32
2019-05-13T05:31:46.437Z,94.49
2019-05-13T05:32:46.797Z,94.08
2019-05-13T05:33:46.419Z,93.73
2019-05-13T05:34:46.624Z,93.31
2019-05-13T05:35:46.404Z,92.65
2019-05-13T05:36:46.489Z,92.03
2019-05-13T05:37:46.358Z,91.78
2019-05-13T05:38:46.398Z,91.47
2019-05-13T05:39:46.396Z,90.95
2019-05-13T05:40:46.447Z,91.05
2019-05-13T05:41:46.310Z,90.19
2019-05-13T05:42:46.425Z,90.19
2019-05-13T05:43:46.307Z,89.98
2019-05-13T05:44:46.344Z,88.90
2019-05-13T05:45:46.307Z,88.59
2019-05-13T05:46:46.347Z,87.10
2019-05-13T05:47:46.246Z,86.90
2019-05-13T05:48:46.264Z,86.96
2019-05-13T05:49:46.233Z,86.03
2019-05-13T05:50:46.308Z,85.47
2019-05-13T05:51:46.208Z,85.99
2019-05-13T05:52:46.291Z,84.61
2019-05-13T05:53:46.221Z,84.09
2019-05-13T05:54:46.201Z,84.30
2019-05-13T05:55:46.195Z,83.85
2019-05-13T05:56:46.180Z,83.71
2019-05-13T05:57:46.141Z,82.47
2019-05-13T05:58:46.240Z,82.47
2019-05-13T05:59:46.125Z,82.95
2019-05-13T06:00:46.173Z,82.19
2019-05-13T06:01:46.108Z,82.29
2019-05-13T06:02:46.157Z,81.57
2019-05-13T06:03:46.074Z,81.53
2019-05-13T06:04:46.170Z,79.58
2019-05-13T06:05:46.091Z,78.86
2019-05-13T06:06:46.064Z,78.61
2019-05-13T06:07:46.045Z,78.82
2019-05-13T06:08:46.027Z,78.92
2019-05-13T06:09:46.014Z,78.10
2019-05-13T06:10:50.145Z,77.86
2019-05-13T06:11:46.996Z,78.27
2019-05-13T06:12:46.028Z,78.27
2019-05-13T06:13:45.963Z,77.34
2019-05-13T06:14:46.349Z,76.52
2019-05-13T06:15:45.943Z,77.72
2019-05-13T06:16:46.081Z,76.73
2019-05-13T06:17:45.938Z,77.41
2019-05-13T06:18:45.931Z,77.41
2019-05-13T06:19:45.906Z,76.90
2019-05-13T06:20:45.911Z,77.10
2019-05-13T06:21:45.913Z,77.00
2019-05-13T06:22:45.882Z,77.20
2019-05-13T06:23:45.860Z,78.20
2019-05-13T06:24:45.886Z,76.59
2019-05-13T06:25:45.836Z,76.14
2019-05-13T06:26:45.858Z,76.65
2019-05-13T06:27:45.850Z,76.82
2019-05-13T06:28:45.811Z,75.80
2019-05-13T06:29:49.048Z,75.38
2019-05-13T06:30:45.842Z,74.98
2019-05-13T06:31:45.802Z,74.94
2019-05-13T06:32:45.887Z,75.45
2019-05-13T06:33:45.748Z,74.74
2019-05-13T06:34:45.750Z,74.19
2019-05-13T06:35:45.730Z,74.29
2019-05-13T06:36:45.718Z,74.15
2019-05-13T06:37:45.735Z,73.54
2019-05-13T06:38:45.701Z,73.44
2019-05-13T06:39:45.682Z,72.41
2019-05-13T06:40:59.497Z,72.89
2019-05-13T06:41:46.664Z,71.86
2019-05-13T06:42:45.688Z,71.93
2019-05-13T06:43:45.677Z,71.93
2019-05-13T06:44:45.630Z,71.93
2019-05-13T06:45:45.770Z,71.11
2019-05-13T06:46:45.632Z,70.91
2019-05-13T06:47:45.629Z,69.98
2019-05-13T06:48:45.589Z,69.34
2019-05-13T06:49:45.581Z,69.47
2019-05-13T06:50:45.562Z,70.29
2019-05-13T06:51:45.562Z,69.27
2019-05-13T06:52:45.605Z,70.29
2019-05-13T06:53:45.538Z,69.89
2019-05-13T06:54:45.519Z,70.26
2019-05-13T06:55:45.519Z,69.27
2019-05-13T06:56:45.506Z,69.37
2019-05-13T06:57:45.533Z,69.57
2019-05-13T06:58:45.485Z,69.06
2019-05-13T06:59:45.530Z,68.45
2019-05-13T07:00:45.487Z,68.96
2019-05-13T07:01:45.544Z,69.37
2019-05-13T07:02:45.475Z,69.06
2019-05-13T07:03:45.451Z,69.78
2019-05-13T07:04:45.408Z,69.10
2019-05-13T07:05:45.400Z,69.30
2019-05-13T07:06:45.405Z,70.22
2019-05-13T07:07:46.403Z,70.70
2019-05-13T07:08:45.383Z,70.50
2019-05-13T07:09:45.366Z,69.89
2019-05-13T07:10:45.353Z,69.34
2019-05-13T07:11:45.411Z,69.34
2019-05-13T07:12:45.351Z,68.21
2019-05-13T07:13:45.380Z,69.54
2019-05-13T07:14:45.312Z,68.38
2019-05-13T07:15:45.340Z,67.67
2019-05-13T07:16:45.276Z,67.77
2019-05-13T07:17:45.382Z,67.67
2019-05-13T07:18:45.260Z,67.94
2019-05-13T07:19:45.261Z,67.84
2019-05-13T07:20:45.250Z,66.51
2019-05-13T07:21:45.237Z,67.02
2019-05-13T07:22:45.242Z,66.92
2019-05-13T07:23:45.254Z,66.51
2019-05-13T07:24:45.193Z,67.33
2019-05-13T07:25:45.198Z,66.00
2019-05-13T07:26:45.218Z,66.31
2019-05-13T07:27:45.201Z,66.72
2019-05-13T07:28:45.175Z,66.72
2019-05-13T07:29:45.228Z,65.08
2019-05-13T07:30:45.151Z,65.21
2019-05-13T07:31:45.242Z,65.21
2019-05-13T07:32:45.114Z,64.70
2019-05-13T07:33:45.187Z,64.80
2019-05-13T07:34:45.089Z,64.98
2019-05-13T07:35:46.040Z,65.31
2019-05-13T07:36:45.142Z,65.08
2019-05-13T07:37:45.072Z,65.08
2019-05-13T07:38:45.088Z,65.69
2019-05-13T07:39:45.057Z,65.18
2019-05-13T07:40:45.040Z,64.77
2019-05-13T07:41:45.015Z,63.85
2019-05-13T07:42:45.001Z,64.50
2019-05-13T07:43:45.024Z,65.01
2019-05-13T07:44:45.014Z,65.18
2019-05-13T07:45:45.039Z,64.39
2019-05-13T07:46:45.018Z,64.98
2019-05-13T07:47:45.054Z,65.08
2019-05-13T07:48:44.965Z,64.13
2019-05-13T07:49:44.946Z,64.43
2019-05-13T07:50:56.754Z,63.59
2019-05-13T07:51:45.905Z,63.69
2019-05-13T07:52:44.901Z,63.35
2019-05-13T07:53:44.912Z,63.45
2019-05-13T07:54:44.871Z,62.02
2019-05-13T07:55:44.856Z,62.84
2019-05-13T07:56:44.964Z,61.92
2019-05-13T07:57:44.847Z,61.41
2019-05-13T07:58:44.829Z,59.50
2019-05-13T07:59:44.842Z,61.24
2019-05-13T08:00:44.831Z,61.75
2019-05-13T08:01:44.793Z,61.31
2019-05-13T08:02:44.842Z,62.23
2019-05-13T08:03:44.816Z,62.23
2019-05-13T08:04:44.820Z,60.83
2019-05-13T08:05:44.757Z,60.19
2019-05-13T08:06:44.816Z,59.06
2019-05-13T08:07:44.726Z,58.65
2019-05-13T08:08:44.745Z,58.75
2019-05-13T08:09:44.746Z,57.12
2019-05-13T08:10:44.699Z,58.96
2019-05-13T08:12:00.061Z,58.55
2019-05-13T08:12:45.671Z,58.32
2019-05-13T08:13:44.876Z,57.81
2019-05-13T08:14:44.669Z,57.40
2019-05-13T08:15:44.729Z,57.48
2019-05-13T08:16:44.638Z,57.68
2019-05-13T08:17:47.701Z,57.55
2019-05-13T08:18:44.605Z,54.31
2019-05-13T08:19:44.662Z,52.70
2019-05-13T08:20:44.586Z,54.92
2019-05-13T08:21:44.580Z,54.72
2019-05-13T08:22:44.564Z,55.23
2019-05-13T08:23:44.568Z,55.84
2019-05-13T08:24:44.656Z,55.13
2019-05-13T08:25:44.546Z,52.45
2019-05-13T08:26:49.788Z,53.57
2019-05-13T08:27:45.527Z,53.77
2019-05-13T08:28:56.988Z,53.67
2019-05-13T08:29:45.538Z,55.20
2019-05-13T08:30:44.573Z,55.28
2019-05-13T08:31:44.470Z,55.18
2019-05-13T08:32:44.547Z,54.24
2019-05-13T08:33:44.441Z,53.42
2019-05-13T08:34:44.444Z,52.37
2019-05-13T08:35:47.082Z,50.46
2019-05-13T08:36:45.453Z,51.17
2019-05-13T08:37:44.434Z,51.25
2019-05-13T08:38:44.510Z,51.94
2019-05-13T08:39:44.410Z,51.74
2019-05-13T08:40:44.381Z,51.23
2019-05-13T08:41:44.397Z,50.49
2019-05-13T08:42:44.344Z,49.98
2019-05-13T08:43:44.340Z,50.29
2019-05-13T08:44:44.357Z,50.19
2019-05-13T08:45:44.474Z,48.25
2019-05-13T08:46:44.427Z,49.17
2019-05-13T08:47:44.787Z,49.17
2019-05-13T08:48:44.292Z,49.17
2019-05-13T08:49:44.389Z,49.27
2019-05-13T08:50:44.306Z,47.97
2019-05-13T08:51:44.249Z,48.48
2019-05-13T08:52:44.255Z,50.62
2019-05-13T08:53:44.240Z,49.19
2019-05-13T08:54:44.265Z,47.36
2019-05-13T08:55:44.259Z,48.27
2019-05-13T08:56:44.278Z,48.79
2019-05-13T08:57:44.194Z,49.42
2019-05-13T08:58:44.180Z,49.29
2019-05-13T08:59:44.170Z,50.11
2019-05-13T09:00:44.188Z,49.19
2019-05-13T09:01:44.238Z,47.87
2019-05-13T09:02:44.127Z,46.52
2019-05-13T09:03:44.248Z,48.43
2019-05-13T09:04:44.106Z,47.31
2019-05-13T09:05:44.108Z,47.62
2019-05-13T09:06:44.161Z,48.61
2019-05-13T09:07:44.080Z,48.69
2019-05-13T09:08:44.069Z,49.61
2019-05-13T09:09:44.072Z,42.80
2019-05-13T09:10:44.039Z,42.59
2019-05-13T09:11:44.074Z,43.10
2019-05-13T09:12:44.026Z,45.36
2019-05-13T09:13:44.011Z,48.00
2019-05-13T09:14:44.014Z,47.70
2019-05-13T09:15:44.030Z,47.60
2019-05-13T09:16:44.115Z,48.00
2019-05-13T09:17:44.058Z,47.88
2019-05-13T09:18:43.987Z,48.69
2019-05-13T09:19:43.949Z,47.96
2019-05-13T09:20:43.944Z,47.25
2019-05-13T09:21:43.954Z,47.33
2019-05-13T09:22:43.914Z,45.28
2019-05-13T09:23:43.926Z,43.85
2019-05-13T09:24:43.890Z,45.28
2019-05-13T09:25:43.885Z,41.24
2019-05-13T09:26:43.889Z,40.62
2019-05-13T09:27:43.892Z,41.84
2019-05-13T09:28:43.844Z,42.25
2019-05-13T09:29:44.020Z,42.66
2019-05-13T09:30:43.825Z,42.33
2019-05-13T09:31:43.965Z,43.04
2019-05-13T09:32:43.802Z,43.04
2019-05-13T09:33:43.843Z,41.31
2019-05-13T09:34:43.795Z,43.75
2019-05-13T09:35:43.785Z,43.55
2019-05-13T09:36:43.823Z,40.70
2019-05-13T09:37:43.764Z,41.62
2019-05-13T09:38:43.739Z,40.59
2019-05-13T09:39:43.734Z,40.79
2019-05-13T09:40:43.719Z,39.15
2019-05-13T09:41:44.658Z,41.17
2019-05-13T09:42:51.570Z,38.95
2019-05-13T09:43:44.678Z,37.51
2019-05-13T09:44:43.713Z,37.95
2019-05-13T09:45:43.667Z,38.07
2019-05-13T09:46:43.768Z,38.18
2019-05-13T09:47:43.657Z,38.57
2019-05-13T09:48:43.749Z,39.18
2019-05-13T09:49:43.611Z,38.98
2019-05-13T09:50:43.613Z,39.37
2019-05-13T09:51:43.623Z,38.13
2019-05-13T09:52:43.592Z,39.96
2019-05-13T09:53:43.566Z,37.61
2019-05-13T09:54:43.570Z,35.60
2019-05-13T09:55:43.548Z,36.10
2019-05-13T09:56:43.574Z,36.90
2019-05-13T09:57:43.564Z,35.48
2019-05-13T09:58:43.526Z,35.88
2019-05-13T09:59:43.506Z,38.21
2019-05-13T10:00:43.618Z,38.72
2019-05-13T10:01:43.493Z,32.84
2019-05-13T10:02:43.565Z,34.78
2019-05-13T10:03:54.004Z,36.21
2019-05-13T10:04:44.469Z,35.68
2019-05-13T10:05:43.470Z,35.77
2019-05-13T10:06:43.437Z,33.32
2019-05-13T10:07:43.461Z,32.12
2019-05-13T10:08:43.415Z,33.06
2019-05-13T10:09:47.601Z,33.89
2019-05-13T10:10:43.389Z,34.11
2019-05-13T10:11:43.391Z,36.22
2019-05-13T10:12:43.396Z,34.60
2019-05-13T10:13:43.362Z,34.58
2019-05-13T10:14:43.349Z,33.26
2019-05-13T10:15:46.162Z,33.67
2019-05-13T10:16:44.325Z,33.86
2019-05-13T10:17:43.475Z,35.78
2019-05-13T10:18:43.333Z,34.94
2019-05-13T10:19:43.324Z,34.53
2019-05-13T10:20:43.290Z,32.91
2019-05-13T10:21:43.294Z,31.90
2019-05-13T10:22:43.287Z,32.59
2019-05-13T10:23:43.257Z,33.20
2019-05-13T10:24:43.347Z,34.92
2019-05-13T10:25:43.234Z,33.59
2019-05-13T10:26:43.439Z,33.78
2019-05-13T10:27:43.271Z,34.59
2019-05-13T10:28:43.206Z,34.69
2019-05-13T10:29:43.318Z,33.58
2019-05-13T10:30:43.874Z,33.37
2019-05-13T10:31:43.170Z,34.28
2019-05-13T10:32:43.234Z,34.67
2019-05-13T10:33:43.268Z,34.95
2019-05-13T10:34:43.131Z,34.33
2019-05-13T10:35:43.138Z,34.74
2019-05-13T10:36:43.108Z,34.33
2019-05-13T10:37:43.103Z,35.93
2019-05-13T10:38:43.109Z,33.11
2019-05-13T10:39:43.080Z,33.11
2019-05-13T10:40:43.445Z,33.01
2019-05-13T10:41:43.072Z,32.50
2019-05-13T10:42:43.399Z,33.11
2019-05-13T10:43:44.254Z,31.49
2019-05-13T10:44:43.014Z,33.01
2019-05-13T10:45:43.116Z,31.91
2019-05-13T10:46:43.042Z,32.73
2019-05-13T10:47:43.027Z,32.11
2019-05-13T10:48:43.009Z,31.42
2019-05-13T10:49:43.057Z,31.02
2019-05-13T10:50:42.963Z,32.93
2019-05-13T10:52:44.088Z,32.92
2019-05-13T10:53:43.006Z,30.00
2019-05-13T10:54:42.915Z,30.91
2019-05-13T10:55:42.981Z,34.27
2019-05-13T10:56:43.214Z,30.93
2019-05-13T10:57:43.002Z,33.34
2019-05-13T10:58:42.956Z,34.86
2019-05-13T10:59:42.937Z,32.03
2019-05-13T11:00:42.845Z,33.02
2019-05-13T11:01:42.974Z,30.00
2019-05-13T11:02:42.832Z,29.82
2019-05-13T11:03:43.081Z,30.12
2019-05-13T11:04:42.809Z,33.15
2019-05-13T11:05:44.764Z,30.62
2019-05-13T11:06:42.783Z,32.84
2019-05-13T11:07:42.893Z,31.91
2019-05-13T11:08:42.794Z,32.60
2019-05-13T11:09:42.834Z,31.49
2019-05-13T11:10:42.739Z,31.39
2019-05-13T11:11:42.794Z,32.18
2019-05-13T11:12:42.739Z,32.18
2019-05-13T11:13:55.083Z,30.26
2019-05-13T11:14:46.741Z,31.26
2019-05-13T11:15:45.382Z,31.06
2019-05-13T11:16:42.911Z,32.78
2019-05-13T11:17:42.885Z,30.94
2019-05-13T11:18:42.654Z,31.55
2019-05-13T11:19:42.820Z,31.15
2019-05-13T11:20:42.633Z,32.54
2019-05-13T11:21:44.271Z,31.42
2019-05-13T11:22:42.656Z,29.42
2019-05-13T11:23:42.678Z,29.11
2019-05-13T11:24:43.365Z,31.03
2019-05-13T11:25:42.795Z,29.53
2019-05-13T11:26:42.569Z,29.07
2019-05-13T11:27:42.597Z,32.21
2019-05-13T11:28:43.048Z,32.90
2019-05-13T11:29:42.643Z,30.87
2019-05-13T11:30:42.530Z,30.57
2019-05-13T11:31:43.097Z,30.05
2019-05-13T11:32:42.872Z,30.76
2019-05-13T11:34:43.629Z,31.96
2019-05-13T11:35:42.544Z,30.96
2019-05-13T11:36:43.396Z,29.26
2019-05-13T11:37:43.567Z,28.26
2019-05-13T11:38:43.322Z,27.97
2019-05-13T11:39:42.999Z,29.28
2019-05-13T11:40:42.405Z,29.68
2019-05-13T11:41:42.878Z,27.37
2019-05-13T11:42:42.401Z,26.98
2019-05-13T11:43:42.582Z,28.39
2019-05-13T11:44:42.994Z,29.89
2019-05-13T11:45:42.451Z,28.78
2019-05-13T11:46:42.895Z,28.26
2019-05-13T11:47:42.423Z,29.28
2019-05-13T11:48:42.742Z,29.49
2019-05-13T11:49:42.781Z,30.40
2019-05-13T11:50:46.560Z,33.59
2019-05-13T11:51:43.291Z,32.27
2019-05-13T11:52:42.767Z,29.64
2019-05-13T11:53:42.274Z,28.35
2019-05-13T11:54:42.674Z,29.56
2019-05-13T11:55:42.577Z,29.55
2019-05-13T11:56:49.245Z,29.95
2019-05-13T11:57:44.473Z,29.64
2019-05-13T11:58:43.076Z,29.66
2019-05-13T11:59:42.919Z,32.99
2019-05-13T12:00:42.759Z,30.98
2019-05-13T12:01:42.878Z,30.55
2019-05-13T12:02:42.633Z,30.35
2019-05-13T12:03:43.565Z,30.35
2019-05-13T12:04:43.180Z,29.96
2019-05-13T12:05:42.313Z,29.44
2019-05-13T12:06:48.021Z,28.63
2019-05-13T12:07:43.124Z,28.32
2019-05-13T12:08:50.125Z,28.63
2019-05-13T12:09:43.106Z,28.42
2019-05-13T12:10:43.955Z,28.51
2019-05-13T12:11:42.114Z,27.42
2019-05-13T12:12:43.929Z,28.32
2019-05-13T12:13:42.703Z,29.42
2019-05-13T12:15:03.992Z,28.51
2019-05-13T12:15:49.419Z,27.59
2019-05-13T12:16:43.058Z,25.88
2019-05-13T12:17:43.083Z,25.89
2019-05-13T12:18:43.805Z,27.30
2019-05-13T12:19:42.041Z,27.91
2019-05-13T12:20:42.892Z,24.08
2019-05-13T12:21:46.441Z,26.20
2019-05-13T12:22:42.968Z,26.50
2019-05-13T12:23:42.884Z,27.50
2019-05-13T12:24:42.482Z,27.10
2019-05-13T12:25:43.870Z,26.20
2019-05-13T12:26:43.399Z,25.89
2019-05-13T12:27:42.074Z,26.80
2019-05-13T12:28:42.248Z,26.50
2019-05-13T12:29:42.965Z,29.30
2019-05-13T12:30:41.963Z,27.80
2019-05-13T12:31:41.940Z,27.68
2019-05-13T12:32:43.670Z,28.18
2019-05-13T12:33:44.031Z,28.08
2019-05-13T12:34:45.767Z,25.96
2019-05-13T12:35:41.840Z,27.78
2019-05-13T12:36:43.227Z,27.06
2019-05-13T12:37:42.164Z,26.96
2019-05-13T12:38:44.358Z,26.04
2019-05-13T12:39:43.851Z,26.45
2019-05-13T12:40:42.920Z,26.95
2019-05-13T12:41:42.796Z,25.64
2019-05-13T12:42:46.219Z,28.56
2019-05-13T12:43:42.850Z,27.86
2019-05-13T12:44:59.756Z,25.53
2019-05-13T12:45:43.287Z,26.25
2019-05-13T12:46:49.708Z,25.54
2019-05-13T12:47:43.425Z,24.36
2019-05-13T12:48:41.808Z,24.69
2019-05-13T12:49:43.786Z,26.13
2019-05-13T12:50:43.165Z,27.43
2019-05-13T12:51:43.992Z,28.22
2019-05-13T12:52:43.769Z,29.82
2019-05-13T12:53:43.517Z,28.09
2019-05-13T12:54:43.738Z,25.78